createdAt,value
2023-03-22T00:02:18.185Z,7.35
2023-03-22T00:04:46.324Z,7.05
2023-03-22T00:07:14.280Z,8.00
2023-03-22T00:09:42.319Z,8.10
2023-03-22T00:12:10.390Z,8.88
2023-03-22T00:14:38.323Z,7.75
2023-03-22T00:17:06.346Z,8.68
2023-03-22T00:19:36.012Z,8.15
2023-03-22T00:22:06.380Z,8.10
2023-03-22T00:24:34.337Z,6.70
2023-03-22T00:27:02.358Z,8.75
2023-03-22T00:29:30.969Z,8.35
2023-03-22T00:31:59.169Z,7.10
2023-03-22T00:34:28.185Z,8.23
2023-03-22T00:36:57.577Z,6.63
2023-03-22T00:39:27.051Z,7.43
2023-03-22T00:41:55.033Z,7.53
2023-03-22T00:44:23.048Z,7.40
2023-03-22T00:46:51.497Z,7.72
2023-03-22T00:49:19.613Z,7.43
2023-03-22T00:51:47.715Z,7.18
2023-03-22T00:54:17.422Z,7.38
2023-03-22T00:56:46.391Z,7.53
2023-03-22T00:59:15.093Z,6.75
2023-03-22T01:01:44.920Z,7.07
2023-03-22T01:04:18.277Z,5.30
2023-03-22T01:06:47.077Z,6.10
2023-03-22T01:09:16.425Z,6.55
2023-03-22T01:11:44.925Z,5.88
2023-03-22T01:14:13.997Z,7.43
2023-03-22T01:16:42.173Z,7.00
2023-03-22T01:19:10.216Z,6.35
2023-03-22T01:21:38.206Z,6.88
2023-03-22T01:24:06.600Z,6.10
2023-03-22T01:26:36.085Z,6.40
2023-03-22T01:29:04.641Z,6.30
2023-03-22T01:31:32.866Z,6.32
2023-03-22T01:34:01.254Z,7.25
2023-03-22T01:36:29.243Z,7.55
2023-03-22T01:38:57.419Z,7.82
2023-03-22T01:41:25.944Z,7.75
2023-03-22T01:44:12.785Z,8.30
2023-03-22T01:46:41.241Z,7.78
2023-03-22T01:49:12.752Z,8.00
2023-03-22T01:51:43.689Z,7.97
2023-03-22T01:54:17.447Z,7.10
2023-03-22T01:56:46.053Z,6.95
2023-03-22T01:59:16.739Z,7.40
2023-03-22T02:01:47.130Z,7.10
2023-03-22T02:04:17.658Z,6.95
2023-03-22T02:06:47.169Z,7.63
2023-03-22T02:09:18.355Z,6.43
2023-03-22T02:11:51.429Z,7.90
2023-03-22T02:14:49.027Z,7.90
2023-03-22T02:17:32.198Z,7.75
2023-03-22T02:20:38.794Z,7.88
2023-03-22T02:23:54.810Z,7.10
2023-03-22T02:26:59.410Z,7.82
2023-03-22T02:29:39.735Z,6.63
2023-03-22T02:32:38.781Z,7.25
2023-03-22T02:35:42.236Z,6.05
2023-03-22T02:38:58.085Z,5.75
2023-03-22T02:41:38.618Z,6.80
2023-03-22T02:44:15.418Z,7.28
2023-03-22T02:46:47.983Z,6.82
2023-03-22T02:49:22.926Z,7.45
2023-03-22T02:51:58.569Z,7.47
2023-03-22T02:54:31.405Z,7.30
2023-03-22T02:57:06.589Z,5.93
2023-03-22T02:59:38.695Z,5.57
2023-03-22T03:02:08.279Z,5.88
2023-03-22T03:04:39.238Z,6.95
2023-03-22T03:07:10.296Z,6.55
2023-03-22T03:09:41.335Z,7.05
2023-03-22T03:12:15.955Z,5.93
2023-03-22T03:14:43.971Z,5.70
2023-03-22T03:17:23.589Z,6.05
2023-03-22T03:20:08.382Z,6.63
2023-03-22T03:22:51.106Z,7.60
2023-03-22T03:25:25.573Z,8.05
2023-03-22T03:28:03.653Z,6.82
2023-03-22T03:30:38.981Z,7.45
2023-03-22T03:33:10.808Z,6.97
2023-03-22T03:35:44.567Z,7.30
2023-03-22T03:38:17.524Z,7.25
2023-03-22T03:40:49.350Z,6.32
2023-03-22T03:43:20.070Z,6.25
2023-03-22T03:45:48.901Z,8.68
2023-03-22T03:48:21.403Z,6.10
2023-03-22T03:50:53.556Z,5.85
2023-03-22T03:53:21.473Z,6.25
2023-03-22T03:55:49.796Z,6.68
2023-03-22T03:58:19.412Z,6.90
2023-03-22T04:00:48.656Z,6.65
2023-03-22T04:03:16.682Z,5.65
2023-03-22T04:05:45.259Z,5.97
2023-03-22T04:08:13.347Z,5.53
2023-03-22T04:10:42.141Z,5.38
2023-03-22T04:13:10.364Z,8.20
2023-03-22T04:15:39.751Z,7.60
2023-03-22T04:18:09.754Z,7.93
2023-03-22T04:20:39.316Z,8.10
2023-03-22T04:23:07.715Z,6.32
2023-03-22T04:25:37.917Z,6.38
2023-03-22T04:28:07.535Z,5.93
2023-03-22T04:30:36.169Z,7.03
2023-03-22T04:33:07.963Z,7.65
2023-03-22T04:35:36.919Z,5.50
2023-03-22T04:38:04.863Z,8.25
2023-03-22T04:40:36.640Z,8.35
2023-03-22T04:43:04.900Z,7.60
2023-03-22T04:45:35.967Z,7.40
2023-03-22T04:48:07.876Z,8.40
2023-03-22T04:50:35.783Z,7.95
2023-03-22T04:53:03.770Z,8.10
2023-03-22T04:55:31.632Z,7.53
2023-03-22T04:57:59.823Z,5.63
2023-03-22T05:00:30.501Z,6.00
2023-03-22T05:02:58.922Z,6.75
2023-03-22T05:05:28.593Z,7.15
2023-03-22T05:07:56.913Z,5.47
2023-03-22T05:10:24.794Z,6.85
2023-03-22T05:12:53.054Z,7.00
2023-03-22T05:15:20.925Z,6.40
2023-03-22T05:17:49.284Z,8.23
2023-03-22T05:20:17.249Z,7.75
2023-03-22T05:22:50.520Z,8.20
2023-03-22T05:25:18.472Z,8.27
2023-03-22T05:27:46.541Z,7.53
2023-03-22T05:30:15.637Z,7.72
2023-03-22T05:32:44.155Z,7.65
2023-03-22T05:35:12.285Z,7.97
2023-03-22T05:37:40.778Z,7.20
2023-03-22T05:40:11.099Z,6.90
2023-03-22T05:42:39.098Z,8.27
2023-03-22T05:45:08.053Z,9.02
2023-03-22T05:47:36.196Z,7.30
2023-03-22T05:50:04.202Z,7.90
2023-03-22T05:52:32.110Z,6.93
2023-03-22T05:55:00.784Z,8.18
2023-03-22T05:57:30.527Z,7.00
2023-03-22T05:59:59.054Z,6.93
2023-03-22T06:02:27.174Z,6.72
2023-03-22T06:04:55.145Z,7.68
2023-03-22T06:07:23.356Z,7.97
2023-03-22T06:09:51.265Z,7.70
2023-03-22T06:12:22.698Z,6.78
2023-03-22T06:14:52.175Z,6.80
2023-03-22T06:17:20.268Z,7.03
2023-03-22T06:19:48.600Z,7.30
2023-03-22T06:22:16.811Z,8.18
2023-03-22T06:24:45.612Z,6.47
2023-03-22T06:27:14.248Z,6.40
2023-03-22T06:29:42.281Z,6.82
2023-03-22T06:32:12.147Z,7.68
2023-03-22T06:34:40.237Z,7.00
2023-03-22T06:37:08.584Z,6.95
2023-03-22T06:39:36.467Z,7.32
2023-03-22T06:42:04.795Z,7.70
2023-03-22T06:44:32.720Z,6.75
2023-03-22T06:47:00.737Z,7.13
2023-03-22T06:49:31.510Z,6.65
2023-03-22T06:51:59.449Z,7.47
2023-03-22T06:54:27.807Z,6.75
2023-03-22T06:56:55.734Z,6.85
2023-03-22T06:59:24.044Z,5.75
2023-03-22T07:01:52.319Z,6.95
2023-03-22T07:04:20.511Z,5.97
2023-03-22T07:06:50.053Z,5.40
2023-03-22T07:09:18.354Z,6.10
2023-03-22T07:11:46.351Z,5.43
2023-03-22T07:14:14.432Z,6.13
2023-03-22T07:16:42.398Z,5.70
2023-03-22T07:19:10.509Z,5.20
2023-03-22T07:21:38.773Z,5.10
2023-03-22T07:24:09.172Z,5.50
2023-03-22T07:26:39.109Z,5.82
2023-03-22T07:29:07.460Z,5.13
2023-03-22T07:31:36.758Z,5.20
2023-03-22T07:34:05.299Z,4.80
2023-03-22T07:36:33.777Z,4.95
2023-03-22T07:39:01.733Z,4.45
2023-03-22T07:41:40.314Z,5.25
2023-03-22T07:44:26.128Z,3.55
2023-03-22T07:46:54.032Z,4.25
2023-03-22T07:49:22.202Z,5.18
2023-03-22T07:51:50.137Z,4.57
2023-03-22T07:54:32.446Z,4.20
2023-03-22T07:57:03.087Z,4.38
2023-03-22T07:59:31.278Z,4.70
2023-03-22T08:01:59.286Z,4.55
2023-03-22T08:04:27.867Z,4.15
2023-03-22T08:06:58.626Z,5.47
2023-03-22T08:09:27.285Z,4.57
2023-03-22T08:11:55.575Z,4.55
2023-03-22T08:14:35.664Z,5.60
2023-03-22T08:17:04.965Z,4.22
2023-03-22T08:19:33.783Z,4.78
2023-03-22T08:22:02.045Z,4.28
2023-03-22T08:24:30.295Z,3.83
2023-03-22T08:26:58.337Z,4.35
2023-03-22T08:29:27.772Z,3.58
2023-03-22T08:31:56.131Z,3.90
2023-03-22T08:34:24.419Z,4.18
2023-03-22T08:36:52.492Z,3.65
2023-03-22T08:39:21.478Z,3.03
2023-03-22T08:41:49.480Z,3.97
2023-03-22T08:44:17.712Z,3.47
2023-03-22T08:46:47.315Z,3.03
2023-03-22T08:49:16.756Z,4.40
2023-03-22T08:51:45.135Z,3.03
2023-03-22T08:54:13.681Z,3.95
2023-03-22T08:56:41.853Z,3.17
2023-03-22T08:59:10.911Z,3.72
2023-03-22T09:01:39.044Z,2.63
2023-03-22T09:04:10.726Z,2.45
2023-03-22T09:06:43.129Z,2.72
2023-03-22T09:09:11.132Z,2.58
2023-03-22T09:11:41.302Z,3.47
2023-03-22T09:14:09.732Z,2.63
2023-03-22T09:16:37.981Z,3.28
2023-03-22T09:19:06.654Z,3.05
2023-03-22T09:21:36.530Z,4.22
2023-03-22T09:24:04.503Z,3.75
2023-03-22T09:26:32.780Z,3.22
2023-03-22T09:29:01.097Z,3.75
2023-03-22T09:31:29.267Z,4.13
2023-03-22T09:33:57.562Z,5.55
2023-03-22T09:36:25.657Z,5.10
2023-03-22T09:38:54.972Z,4.70
2023-03-22T09:41:26.427Z,4.88
2023-03-22T09:43:58.294Z,4.18
2023-03-22T09:46:32.586Z,3.47
2023-03-22T09:49:03.012Z,4.68
2023-03-22T09:51:39.863Z,4.97
2023-03-22T09:54:15.583Z,4.80
2023-03-22T09:56:46.051Z,5.35
2023-03-22T09:59:19.269Z,4.45
2023-03-22T10:01:52.907Z,4.43
2023-03-22T10:04:43.498Z,3.90
2023-03-22T10:07:22.335Z,4.18
2023-03-22T10:10:00.658Z,3.95
2023-03-22T10:12:32.853Z,4.03
2023-03-22T10:15:06.869Z,4.70
2023-03-22T10:17:37.578Z,4.68
2023-03-22T10:20:09.685Z,4.88
2023-03-22T10:22:41.948Z,3.30
2023-03-22T10:25:18.315Z,4.82
2023-03-22T10:27:49.892Z,5.32
2023-03-22T10:30:22.047Z,3.92
2023-03-22T10:32:58.379Z,3.80
2023-03-22T10:35:27.116Z,3.85
2023-03-22T10:37:57.262Z,2.97
2023-03-22T10:40:29.863Z,5.70
2023-03-22T10:43:02.221Z,4.65
2023-03-22T10:45:33.069Z,5.00
2023-03-22T10:48:05.361Z,4.47
2023-03-22T10:50:36.648Z,5.25
2023-03-22T10:53:12.866Z,3.45
2023-03-22T10:55:43.619Z,2.53
2023-03-22T10:58:16.931Z,2.80
2023-03-22T11:00:47.190Z,4.15
2023-03-22T11:03:28.762Z,4.55
2023-03-22T11:06:01.969Z,5.03
2023-03-22T11:08:30.028Z,4.88
2023-03-22T11:11:00.371Z,5.18
2023-03-22T11:13:29.498Z,5.28
2023-03-22T11:16:02.907Z,5.45
2023-03-22T11:18:32.946Z,5.22
2023-03-22T11:21:05.932Z,5.30
2023-03-22T11:23:35.648Z,5.60
2023-03-22T11:26:10.223Z,5.30
2023-03-22T11:28:48.709Z,5.15
2023-03-22T11:31:18.687Z,5.05
2023-03-22T11:33:56.800Z,4.05
2023-03-22T11:36:25.452Z,5.72
2023-03-22T11:38:59.156Z,5.30
2023-03-22T11:41:31.221Z,3.30
2023-03-22T11:44:03.102Z,3.22
2023-03-22T11:46:32.371Z,2.80
2023-03-22T11:49:04.281Z,2.70
2023-03-22T11:51:36.140Z,3.25
2023-03-22T11:54:09.195Z,3.40
2023-03-22T11:56:44.250Z,2.58
2023-03-22T11:59:16.676Z,3.58
2023-03-22T12:01:52.224Z,3.95
2023-03-22T12:04:25.636Z,2.53
2023-03-22T12:06:56.634Z,3.47
2023-03-22T12:09:30.110Z,3.17
2023-03-22T12:12:03.115Z,3.95
2023-03-22T12:14:36.051Z,3.38
2023-03-22T12:17:09.104Z,3.17
2023-03-22T12:19:51.218Z,2.33
2023-03-22T12:22:22.983Z,2.80
2023-03-22T12:24:50.964Z,3.60
2023-03-22T12:27:24.255Z,3.63
2023-03-22T12:29:58.322Z,3.47
2023-03-22T12:32:29.947Z,3.58
2023-03-22T12:35:14.108Z,3.55
2023-03-22T12:37:48.852Z,3.63
2023-03-22T12:40:24.029Z,4.05
2023-03-22T12:43:00.674Z,3.20
2023-03-22T12:45:33.356Z,3.50
2023-03-22T12:48:07.618Z,3.72
2023-03-22T12:50:40.485Z,3.47
2023-03-22T12:53:12.776Z,4.03
2023-03-22T12:55:42.787Z,3.65
2023-03-22T12:58:22.746Z,3.00
2023-03-22T13:00:56.236Z,3.60
2023-03-22T13:03:28.925Z,3.67
2023-03-22T13:06:06.507Z,3.30
2023-03-22T13:09:16.153Z,2.72
2023-03-22T13:11:46.371Z,3.25
2023-03-22T13:14:57.711Z,2.90
2023-03-22T13:17:45.164Z,2.95
2023-03-22T13:20:31.614Z,2.47
2023-03-22T13:23:06.291Z,3.42
2023-03-22T13:25:38.459Z,3.05
2023-03-22T13:28:24.727Z,3.03
2023-03-22T13:30:55.930Z,3.92
2023-03-22T13:33:28.243Z,5.40
2023-03-22T13:35:59.094Z,5.13
2023-03-22T13:38:29.262Z,3.47
2023-03-22T13:41:05.988Z,3.63
2023-03-22T13:43:36.883Z,3.50
2023-03-22T13:46:30.294Z,3.15
2023-03-22T13:49:18.255Z,3.15
2023-03-22T13:51:46.686Z,3.72
2023-03-22T13:54:24.042Z,4.10
2023-03-22T13:57:00.823Z,3.28
2023-03-22T13:59:33.988Z,3.42
2023-03-22T14:02:18.504Z,2.78
2023-03-22T14:04:50.235Z,3.33
2023-03-22T14:07:25.209Z,2.10
2023-03-22T14:09:57.169Z,2.88
2023-03-22T14:12:32.406Z,2.83
2023-03-22T14:15:05.171Z,3.45
2023-03-22T14:17:43.131Z,2.78
2023-03-22T14:20:16.396Z,3.00
